Time;durP1;ratioP1;P1;durP2;ratioP2;P2;SDS_P1;SDS_P2;PMS_P1;PMS_P2;Temp;Humidity;BMP_temperature;BMP_pressure;BME280_temperature;BME280_humidity;BME280_pressure;Samples;Min_cycle;Max_cycle;Signal;HPM_P1;HPM_P2
2023/02/11 00:00:54;;;;;;;9.60;7.17;;;;;;;;;;5050333;28;20474;-73
2023/02/11 00:03:21;;;;;;;12.60;6.73;;;;;;;;;;5051423;28;20814;-72
2023/02/11 00:05:59;;;;;;;7.20;5.27;;;;;;;;;;5051053;28;20453;-71
2023/02/11 00:08:26;;;;;;;12.60;5.93;;;;;;;;;;5051202;28;20879;-71
2023/02/11 00:10:54;;;;;;;18.47;7.90;;;;;;;;;;5050380;28;20446;-72
2023/02/11 00:13:21;;;;;;;14.53;6.60;;;;;;;;;;5051731;28;20450;-71
2023/02/11 00:15:49;;;;;;;25.57;7.40;;;;;;;;;;5052496;28;20451;-72
2023/02/11 00:18:16;;;;;;;10.73;6.47;;;;;;;;;;5055656;28;20446;-72
2023/02/11 00:20:43;;;;;;;11.37;5.40;;;;;;;;;;5051915;28;20477;-69
2023/02/11 00:23:12;;;;;;;8.80;6.13;;;;;;;;;;5054414;28;20474;-71
2023/02/11 00:25:40;;;;;;;15.07;13.47;;;;;;;;;;5055278;28;20461;-68
2023/02/11 00:28:07;;;;;;;19.60;5.30;;;;;;;;;;5056534;28;20451;-72
2023/02/11 00:30:34;;;;;;;12.23;6.97;;;;;;;;;;5057862;28;20449;-72
2023/02/11 00:33:01;;;;;;;12.97;7.23;;;;;;;;;;5058790;28;20741;-71
2023/02/11 00:35:28;;;;;;;14.83;8.13;;;;;;;;;;5058208;28;20460;-72
2023/02/11 00:37:56;;;;;;;9.20;6.40;;;;;;;;;;5057761;28;20958;-71
2023/02/11 00:40:24;;;;;;;10.03;5.50;;;;;;;;;;5059246;28;20483;-71
2023/02/11 00:42:52;;;;;;;14.30;7.77;;;;;;;;;;5059667;28;20441;-71
2023/02/11 00:45:20;;;;;;;10.67;6.03;;;;;;;;;;5060091;28;20450;-72
2023/02/11 00:47:47;;;;;;;7.30;4.33;;;;;;;;;;5059894;28;20454;-70
2023/02/11 00:50:14;;;;;;;8.27;6.40;;;;;;;;;;5059782;28;20460;-72
2023/02/11 00:52:41;;;;;;;9.00;5.57;;;;;;;;;;5060356;28;20462;-71
2023/02/11 00:55:08;;;;;;;6.27;5.67;;;;;;;;;;5062921;28;20461;-69
2023/02/11 00:57:37;;;;;;;8.43;6.10;;;;;;;;;;5062457;28;20919;-71
2023/02/11 01:00:05;;;;;;;10.37;6.87;;;;;;;;;;5061205;28;20444;-72
2023/02/11 01:02:32;;;;;;;13.27;8.47;;;;;;;;;;5061212;28;20822;-73
2023/02/11 01:04:59;;;;;;;12.07;6.40;;;;;;;;;;5047488;28;20460;-72
2023/02/11 01:07:26;;;;;;;8.93;6.23;;;;;;;;;;5060996;28;20464;-73
2023/02/11 01:09:53;;;;;;;12.07;5.57;;;;;;;;;;5060620;28;20481;-73
2023/02/11 01:12:21;;;;;;;12.33;6.70;;;;;;;;;;5064571;28;20453;-74
2023/02/11 01:14:49;;;;;;;11.47;5.40;;;;;;;;;;5061498;28;20439;-71
2023/02/11 01:17:17;;;;;;;13.80;7.70;;;;;;;;;;5055122;28;20926;-72
2023/02/11 01:19:44;;;;;;;10.23;6.27;;;;;;;;;;5054106;28;20460;-68
2023/02/11 01:22:11;;;;;;;14.40;6.80;;;;;;;;;;5054342;28;20998;-71
2023/02/11 01:24:38;;;;;;;15.93;6.87;;;;;;;;;;5054911;28;20525;-70
2023/02/11 01:27:05;;;;;;;12.13;5.67;;;;;;;;;;5054385;28;20793;-72
2023/02/11 01:29:32;;;;;;;14.23;6.90;;;;;;;;;;5054282;28;20455;-72
2023/02/11 01:32:01;;;;;;;12.37;3.93;;;;;;;;;;5052719;28;20446;-72
2023/02/11 01:34:28;;;;;;;11.43;7.57;;;;;;;;;;5054248;28;20445;-72
2023/02/11 01:36:57;;;;;;;10.53;5.27;;;;;;;;;;5052685;28;20451;-73
2023/02/11 01:39:24;;;;;;;12.47;9.77;;;;;;;;;;5054224;28;20449;-73
2023/02/11 01:41:51;;;;;;;13.50;6.40;;;;;;;;;;5052908;28;20489;-72
2023/02/11 01:44:23;;;;;;;9.87;6.23;;;;;;;;;;5054381;28;20454;-72
2023/02/11 01:46:50;;;;;;;10.63;5.37;;;;;;;;;;5053173;28;20453;-72
2023/02/11 01:49:19;;;;;;;11.73;6.33;;;;;;;;;;5053453;28;20945;-72
2023/02/11 01:51:48;;;;;;;6.30;4.40;;;;;;;;;;5052488;28;20468;-72
2023/02/11 01:59:49;;;;;;;13.87;6.13;;;;;;;;;;5052452;28;20438;-72
2023/02/11 02:02:17;;;;;;;12.53;5.97;;;;;;;;;;5053355;28;20490;-72
2023/02/11 02:04:48;;;;;;;25.23;6.67;;;;;;;;;;5053346;28;20801;-72
2023/02/11 02:07:19;;;;;;;8.27;6.03;;;;;;;;;;5053500;28;20938;-71
2023/02/11 02:09:49;;;;;;;11.63;6.60;;;;;;;;;;5051461;28;20485;-72
2023/02/11 02:12:16;;;;;;;10.70;7.07;;;;;;;;;;5053348;28;20451;-72
2023/02/11 02:14:43;;;;;;;5.50;4.80;;;;;;;;;;5052431;28;20943;-71
2023/02/11 02:17:17;;;;;;;19.63;7.30;;;;;;;;;;5052979;28;20454;-72
2023/02/11 02:20:03;;;;;;;7.20;3.97;;;;;;;;;;5040428;28;20446;-72
2023/02/11 02:22:43;;;;;;;5.60;5.03;;;;;;;;;;5052570;28;20491;-72
2023/02/11 02:25:19;;;;;;;11.03;6.07;;;;;;;;;;5053249;28;20449;-71
2023/02/11 02:27:49;;;;;;;13.23;5.90;;;;;;;;;;5052378;28;20910;-72
2023/02/11 02:30:25;;;;;;;12.37;6.00;;;;;;;;;;5052873;28;20446;-73
2023/02/11 02:33:04;;;;;;;13.07;5.03;;;;;;;;;;5052480;28;20443;-72
2023/02/11 02:35:35;;;;;;;12.27;7.80;;;;;;;;;;5052710;28;20447;-72
2023/02/11 02:38:05;;;;;;;12.70;7.17;;;;;;;;;;5052835;28;20819;-72
2023/02/11 02:40:33;;;;;;;13.37;6.20;;;;;;;;;;5053093;28;20459;-71
2023/02/11 02:43:01;;;;;;;11.17;6.13;;;;;;;;;;5052664;28;20504;-73
2023/02/11 02:45:29;;;;;;;8.53;5.20;;;;;;;;;;5052754;28;21009;-72
2023/02/11 02:47:56;;;;;;;17.03;8.30;;;;;;;;;;5052432;28;20451;-72
2023/02/11 02:50:29;;;;;;;27.13;6.30;;;;;;;;;;5052415;28;20446;-72
2023/02/11 02:53:00;;;;;;;8.47;5.30;;;;;;;;;;5052353;28;20450;-72
2023/02/11 02:55:35;;;;;;;8.33;5.23;;;;;;;;;;5053100;28;20455;-72
2023/02/11 02:58:18;;;;;;;13.70;5.30;;;;;;;;;;5052155;28;20446;-72
2023/02/11 03:00:50;;;;;;;16.00;8.30;;;;;;;;;;5051625;28;20443;-72
2023/02/11 03:03:22;;;;;;;8.23;3.70;;;;;;;;;;5052687;28;20443;-72
2023/02/11 03:05:54;;;;;;;6.13;4.53;;;;;;;;;;5052161;28;20449;-72
2023/02/11 03:08:25;;;;;;;10.97;7.57;;;;;;;;;;5051992;28;20495;-72
2023/02/11 03:10:54;;;;;;;9.60;6.37;;;;;;;;;;5050625;28;20442;-73
2023/02/11 03:13:23;;;;;;;6.70;4.03;;;;;;;;;;5052151;28;20447;-73
2023/02/11 03:15:52;;;;;;;14.73;6.40;;;;;;;;;;5051545;28;20453;-72
2023/02/11 03:18:21;;;;;;;6.00;3.70;;;;;;;;;;5051856;28;20449;-72
2023/02/11 03:20:49;;;;;;;14.30;6.63;;;;;;;;;;5050330;28;20486;-72
2023/02/11 03:23:21;;;;;;;14.27;7.70;;;;;;;;;;5051510;28;20452;-72
2023/02/11 03:25:52;;;;;;;5.63;3.57;;;;;;;;;;5051416;28;20448;-72
2023/02/11 03:28:24;;;;;;;17.67;7.07;;;;;;;;;;5051440;28;20463;-72
2023/02/11 03:30:55;;;;;;;10.93;6.80;;;;;;;;;;5049828;28;20462;-72
2023/02/11 03:33:25;;;;;;;12.10;6.37;;;;;;;;;;5050384;28;20461;-72
2023/02/11 03:35:54;;;;;;;5.93;5.30;;;;;;;;;;5038363;28;20551;-72
2023/02/11 03:38:23;;;;;;;7.13;5.80;;;;;;;;;;5051419;28;20465;-72
2023/02/11 03:40:51;;;;;;;6.00;3.93;;;;;;;;;;5038812;28;20462;-72
2023/02/11 03:43:19;;;;;;;12.90;5.70;;;;;;;;;;5051950;28;20486;-72
2023/02/11 03:45:48;;;;;;;5.93;5.10;;;;;;;;;;5051279;28;20490;-72
2023/02/11 03:48:17;;;;;;;16.70;7.13;;;;;;;;;;5051127;28;20959;-72
2023/02/11 03:50:46;;;;;;;8.07;6.20;;;;;;;;;;5050488;28;20452;-72
2023/02/11 03:53:14;;;;;;;8.23;6.60;;;;;;;;;;5051501;28;20453;-72
2023/02/11 03:55:43;;;;;;;11.50;5.10;;;;;;;;;;5051179;28;20958;-71
2023/02/11 03:58:10;;;;;;;7.70;5.53;;;;;;;;;;5051607;28;20451;-71
2023/02/11 04:00:39;;;;;;;13.13;7.10;;;;;;;;;;5050591;28;20450;-71
2023/02/11 04:03:07;;;;;;;8.33;6.90;;;;;;;;;;5051375;28;21050;-72
2023/02/11 04:05:34;;;;;;;9.47;6.70;;;;;;;;;;5051889;28;20457;-72
2023/02/11 04:08:01;;;;;;;6.37;4.60;;;;;;;;;;5050365;28;20969;-71
2023/02/11 04:10:29;;;;;;;10.53;4.77;;;;;;;;;;5050650;28;20450;-72
2023/02/11 04:12:57;;;;;;;8.20;5.97;;;;;;;;;;5050165;28;20454;-73
2023/02/11 04:15:24;;;;;;;10.73;6.10;;;;;;;;;;5051006;28;20454;-72
2023/02/11 04:17:52;;;;;;;10.07;8.87;;;;;;;;;;5049743;28;20446;-71
2023/02/11 04:20:19;;;;;;;13.23;6.67;;;;;;;;;;5050337;28;20450;-71
2023/02/11 04:22:46;;;;;;;8.80;3.93;;;;;;;;;;5049876;28;20482;-71
2023/02/11 04:25:13;;;;;;;12.27;8.13;;;;;;;;;;5050508;28;20813;-71
2023/02/11 04:27:40;;;;;;;8.00;5.10;;;;;;;;;;5050560;28;20455;-68
2023/02/11 04:30:09;;;;;;;17.53;7.97;;;;;;;;;;5049954;28;20443;-71
2023/02/11 04:32:36;;;;;;;8.87;4.77;;;;;;;;;;5047983;28;20446;-72
2023/02/11 04:35:04;;;;;;;12.63;5.73;;;;;;;;;;5050011;28;20448;-72
2023/02/11 04:37:31;;;;;;;6.77;5.60;;;;;;;;;;5050579;28;20459;-72
2023/02/11 04:39:58;;;;;;;14.60;6.87;;;;;;;;;;5050045;28;20718;-72
2023/02/11 04:42:25;;;;;;;7.77;5.73;;;;;;;;;;5050769;28;20486;-71
2023/02/11 04:44:52;;;;;;;7.57;5.27;;;;;;;;;;5050158;28;20458;-71
2023/02/11 04:47:20;;;;;;;6.43;4.13;;;;;;;;;;5051027;28;20455;-71
2023/02/11 04:49:47;;;;;;;5.97;4.87;;;;;;;;;;5049724;28;20439;-71
2023/02/11 04:52:14;;;;;;;12.83;7.77;;;;;;;;;;5051060;28;20454;-71
2023/02/11 04:54:42;;;;;;;9.17;5.30;;;;;;;;;;5050224;28;20458;-71
2023/02/11 04:57:09;;;;;;;11.10;8.30;;;;;;;;;;5050654;28;20454;-71
2023/02/11 04:59:36;;;;;;;12.97;6.63;;;;;;;;;;5050561;28;20460;-71
2023/02/11 05:02:03;;;;;;;5.97;5.20;;;;;;;;;;5050816;28;20514;-71
2023/02/11 05:04:32;;;;;;;10.00;6.57;;;;;;;;;;5050378;28;20455;-73
2023/02/11 05:06:59;;;;;;;8.33;4.80;;;;;;;;;;5049769;28;20461;-71
2023/02/11 05:09:26;;;;;;;7.83;6.17;;;;;;;;;;5049474;28;20484;-72
2023/02/11 05:11:53;;;;;;;22.63;7.30;;;;;;;;;;5049187;28;20478;-72
2023/02/11 05:14:20;;;;;;;16.07;6.90;;;;;;;;;;5050208;28;20457;-72
2023/02/11 05:16:47;;;;;;;10.00;8.00;;;;;;;;;;5049403;28;20454;-72
2023/02/11 05:19:14;;;;;;;13.03;8.40;;;;;;;;;;5050059;28;20451;-68
2023/02/11 05:21:43;;;;;;;11.50;5.87;;;;;;;;;;5049364;28;20459;-68
2023/02/11 05:24:10;;;;;;;12.20;6.83;;;;;;;;;;5050340;28;20483;-70
2023/02/11 05:26:37;;;;;;;8.20;5.80;;;;;;;;;;5050496;28;20445;-71
2023/02/11 05:29:04;;;;;;;14.13;7.77;;;;;;;;;;5049626;28;20458;-72
2023/02/11 05:31:32;;;;;;;18.80;8.13;;;;;;;;;;5049771;28;20820;-71
2023/02/11 05:33:59;;;;;;;15.33;8.33;;;;;;;;;;5049486;28;20548;-71
2023/02/11 05:36:26;;;;;;;10.30;4.27;;;;;;;;;;5049839;28;20453;-71
2023/02/11 05:38:54;;;;;;;11.90;7.77;;;;;;;;;;5049281;28;20935;-71
2023/02/11 05:41:21;;;;;;;10.97;8.07;;;;;;;;;;5041766;28;20453;-71
2023/02/11 05:43:49;;;;;;;9.97;5.17;;;;;;;;;;5050039;28;20493;-72
2023/02/11 05:46:17;;;;;;;5.30;4.60;;;;;;;;;;5050443;28;20492;-72
2023/02/11 05:48:44;;;;;;;14.50;5.83;;;;;;;;;;5049636;28;20463;-72
2023/02/11 05:51:11;;;;;;;9.03;5.90;;;;;;;;;;5049789;28;20934;-72
2023/02/11 05:53:38;;;;;;;7.73;6.60;;;;;;;;;;5050351;28;20463;-67
2023/02/11 05:56:07;;;;;;;14.73;7.60;;;;;;;;;;5050815;28;20442;-73
2023/02/11 05:58:34;;;;;;;15.67;7.10;;;;;;;;;;5054171;28;20449;-73
2023/02/11 06:01:01;;;;;;;14.43;8.03;;;;;;;;;;5052848;28;20958;-72
2023/02/11 06:03:28;;;;;;;13.73;7.17;;;;;;;;;;5053848;28;20505;-73
2023/02/11 06:05:55;;;;;;;8.63;6.47;;;;;;;;;;5053208;28;20453;-72
2023/02/11 06:08:22;;;;;;;10.40;7.00;;;;;;;;;;5053741;28;20556;-72
2023/02/11 06:10:50;;;;;;;13.37;8.97;;;;;;;;;;5052169;28;20923;-74
2023/02/11 06:13:18;;;;;;;11.97;8.33;;;;;;;;;;5053762;28;20450;-72
2023/02/11 06:15:45;;;;;;;16.03;8.40;;;;;;;;;;5052752;28;20442;-73
2023/02/11 06:18:12;;;;;;;17.30;9.17;;;;;;;;;;5053013;28;20458;-72
2023/02/11 06:20:40;;;;;;;12.80;6.27;;;;;;;;;;5052865;28;20447;-68
2023/02/11 06:23:07;;;;;;;10.73;6.90;;;;;;;;;;5053795;28;20478;-73
2023/02/11 06:25:35;;;;;;;13.20;6.43;;;;;;;;;;5052980;28;20958;-73
2023/02/11 06:28:02;;;;;;;17.60;5.67;;;;;;;;;;5052678;28;20458;-72
2023/02/11 06:30:30;;;;;;;12.67;6.60;;;;;;;;;;5052663;28;20450;-73
2023/02/11 06:32:57;;;;;;;22.07;8.10;;;;;;;;;;5052344;28;20986;-72
2023/02/11 06:35:24;;;;;;;10.97;6.00;;;;;;;;;;5052895;28;20450;-71
2023/02/11 06:37:52;;;;;;;14.60;7.87;;;;;;;;;;5052381;28;20461;-73
2023/02/11 06:40:20;;;;;;;9.60;5.90;;;;;;;;;;5052537;28;20943;-73
2023/02/11 06:42:47;;;;;;;12.50;8.63;;;;;;;;;;5052427;28;20482;-73
2023/02/11 06:45:14;;;;;;;12.73;5.80;;;;;;;;;;5053193;28;20450;-72
2023/02/11 06:47:42;;;;;;;17.57;11.03;;;;;;;;;;5052671;28;20449;-69
2023/02/11 06:50:11;;;;;;;9.47;5.93;;;;;;;;;;5052546;28;20447;-70
2023/02/11 06:52:38;;;;;;;11.30;6.20;;;;;;;;;;5052681;28;20453;-67
2023/02/11 06:55:06;;;;;;;14.73;7.97;;;;;;;;;;5053048;28;21411;-71
2023/02/11 06:57:33;;;;;;;13.97;7.30;;;;;;;;;;5053404;28;20442;-69
2023/02/11 07:00:00;;;;;;;13.33;5.90;;;;;;;;;;5051848;28;20446;-70
2023/02/11 07:02:27;;;;;;;12.10;7.60;;;;;;;;;;5052838;28;20482;-71
2023/02/11 07:04:55;;;;;;;8.27;6.50;;;;;;;;;;5051959;28;20464;-70
2023/02/11 07:07:23;;;;;;;9.73;6.30;;;;;;;;;;5052334;28;20458;-71
2023/02/11 07:09:50;;;;;;;11.23;7.80;;;;;;;;;;5051078;28;20477;-70
2023/02/11 07:12:17;;;;;;;8.10;6.13;;;;;;;;;;5051856;28;20446;-70
2023/02/11 07:14:44;;;;;;;15.20;6.40;;;;;;;;;;5051264;28;20451;-69
2023/02/11 07:17:11;;;;;;;9.30;6.20;;;;;;;;;;5052172;28;20446;-69
2023/02/11 07:19:38;;;;;;;14.63;6.73;;;;;;;;;;5038607;28;20449;-70
2023/02/11 07:22:06;;;;;;;11.20;7.37;;;;;;;;;;5052058;28;20447;-68
2023/02/11 07:24:34;;;;;;;5.90;3.53;;;;;;;;;;5052480;28;20465;-69
2023/02/11 07:27:01;;;;;;;10.93;6.50;;;;;;;;;;5061149;28;20444;-69
2023/02/11 07:29:28;;;;;;;8.93;5.80;;;;;;;;;;5051945;28;20453;-70
2023/02/11 07:31:55;;;;;;;14.17;7.93;;;;;;;;;;5051193;28;20476;-69
2023/02/11 07:34:22;;;;;;;6.30;5.10;;;;;;;;;;5051804;28;20454;-68
2023/02/11 07:36:49;;;;;;;11.90;6.73;;;;;;;;;;5051034;28;20450;-69
2023/02/11 07:39:18;;;;;;;16.97;7.27;;;;;;;;;;5051943;28;20451;-69
2023/02/11 07:41:46;;;;;;;9.43;6.97;;;;;;;;;;5051567;28;20541;-69
2023/02/11 07:44:13;;;;;;;17.47;6.97;;;;;;;;;;5051845;28;20497;-72
2023/02/11 07:46:43;;;;;;;10.63;7.20;;;;;;;;;;5051437;28;20472;-71
2023/02/11 07:49:11;;;;;;;11.70;7.00;;;;;;;;;;5051713;28;20451;-68
2023/02/11 07:51:38;;;;;;;8.97;4.73;;;;;;;;;;5051961;28;20458;-68
2023/02/11 07:54:05;;;;;;;13.97;7.13;;;;;;;;;;5051726;28;20454;-68
2023/02/11 07:56:34;;;;;;;15.13;8.00;;;;;;;;;;5051571;28;20815;-69
2023/02/11 07:59:02;;;;;;;10.53;7.77;;;;;;;;;;5050580;28;20465;-69
2023/02/11 08:01:29;;;;;;;10.93;8.27;;;;;;;;;;5051459;28;20805;-71
2023/02/11 08:03:57;;;;;;;14.20;7.10;;;;;;;;;;5051057;28;20479;-70
2023/02/11 08:06:25;;;;;;;12.10;6.67;;;;;;;;;;5051232;28;20463;-69
2023/02/11 08:08:53;;;;;;;11.07;6.10;;;;;;;;;;5042106;28;20992;-69
2023/02/11 08:11:21;;;;;;;9.87;6.50;;;;;;;;;;5050479;28;20450;-69
2023/02/11 08:13:50;;;;;;;10.20;6.53;;;;;;;;;;5050592;28;20522;-69
2023/02/11 08:16:19;;;;;;;14.70;8.00;;;;;;;;;;5051856;28;20545;-69
2023/02/11 08:18:46;;;;;;;12.00;7.03;;;;;;;;;;5049758;28;20446;-69
2023/02/11 08:21:13;;;;;;;10.33;7.77;;;;;;;;;;5050353;28;20458;-69
2023/02/11 08:23:42;;;;;;;12.40;8.03;;;;;;;;;;5050700;28;20486;-67
2023/02/11 08:26:10;;;;;;;10.13;5.70;;;;;;;;;;5050699;28;20954;-69
2023/02/11 08:28:38;;;;;;;11.17;7.40;;;;;;;;;;5051083;28;20461;-68
2023/02/11 08:31:07;;;;;;;14.03;9.30;;;;;;;;;;5050219;28;20453;-70
2023/02/11 08:33:34;;;;;;;8.63;5.40;;;;;;;;;;5050747;28;20969;-70
2023/02/11 08:36:02;;;;;;;9.97;7.03;;;;;;;;;;5050070;28;21136;-70
2023/02/11 08:38:29;;;;;;;12.13;6.63;;;;;;;;;;5050903;28;20452;-70
2023/02/11 08:40:56;;;;;;;9.53;6.50;;;;;;;;;;5050290;28;20447;-71
2023/02/11 08:43:23;;;;;;;12.10;5.80;;;;;;;;;;5050690;28;20484;-71
2023/02/11 08:45:50;;;;;;;11.83;6.60;;;;;;;;;;5050748;28;20817;-70
2023/02/11 08:48:19;;;;;;;17.83;8.83;;;;;;;;;;5050850;28;20451;-71
2023/02/11 08:50:46;;;;;;;11.07;7.97;;;;;;;;;;5049741;28;20446;-70
2023/02/11 08:53:13;;;;;;;16.10;7.10;;;;;;;;;;5050641;28;20942;-70
2023/02/11 08:55:40;;;;;;;14.10;7.47;;;;;;;;;;5050550;28;20443;-70
2023/02/11 08:58:08;;;;;;;10.53;6.50;;;;;;;;;;5050720;28;20935;-72
2023/02/11 09:00:35;;;;;;;11.73;8.30;;;;;;;;;;5050990;28;20445;-70
2023/02/11 09:03:02;;;;;;;15.23;7.73;;;;;;;;;;5050072;28;20577;-71
2023/02/11 09:05:30;;;;;;;9.33;6.60;;;;;;;;;;5050855;28;20461;-71
2023/02/11 09:07:57;;;;;;;9.30;7.07;;;;;;;;;;5049781;28;20446;-71
2023/02/11 09:10:24;;;;;;;11.17;6.87;;;;;;;;;;5050204;28;20442;-71
2023/02/11 09:12:52;;;;;;;9.43;7.50;;;;;;;;;;5048779;28;20808;-69
2023/02/11 09:15:19;;;;;;;11.53;6.73;;;;;;;;;;5050597;28;20457;-73
2023/02/11 09:17:46;;;;;;;13.30;5.93;;;;;;;;;;5049339;28;20446;-81
2023/02/11 09:20:13;;;;;;;9.23;5.83;;;;;;;;;;5048884;28;20458;-70
2023/02/11 09:22:41;;;;;;;7.87;5.63;;;;;;;;;;5050101;28;20445;-69
2023/02/11 09:25:09;;;;;;;9.80;5.33;;;;;;;;;;5049917;28;21006;-74
2023/02/11 09:27:36;;;;;;;11.37;7.47;;;;;;;;;;5049912;28;20456;-71
2023/02/11 09:30:03;;;;;;;9.10;5.93;;;;;;;;;;5048091;28;21026;-73
2023/02/11 09:32:30;;;;;;;10.97;6.87;;;;;;;;;;5053128;28;20537;-70
2023/02/11 09:34:57;;;;;;;10.40;5.80;;;;;;;;;;5052739;28;20454;-70
2023/02/11 09:37:24;;;;;;;7.90;6.17;;;;;;;;;;5053790;28;20461;-70
2023/02/11 09:39:53;;;;;;;15.17;6.57;;;;;;;;;;5053250;28;20442;-70
2023/02/11 09:42:35;;;;;;;8.60;5.87;;;;;;;;;;5054295;28;20446;-70
2023/02/11 09:45:03;;;;;;;6.50;5.67;;;;;;;;;;5053809;28;20825;-70
2023/02/11 09:47:32;;;;;;;7.67;5.80;;;;;;;;;;5054110;28;20435;-71
2023/02/11 09:50:01;;;;;;;9.63;5.40;;;;;;;;;;5052884;28;20442;-70
2023/02/11 09:52:31;;;;;;;10.53;6.27;;;;;;;;;;5054205;28;20446;-71
2023/02/11 09:55:00;;;;;;;13.40;6.10;;;;;;;;;;5053763;28;20749;-70
2023/02/11 09:57:29;;;;;;;11.10;6.20;;;;;;;;;;5053638;28;20442;-69
2023/02/11 09:59:56;;;;;;;8.27;5.23;;;;;;;;;;5052586;28;20435;-70
2023/02/11 10:02:25;;;;;;;9.47;5.10;;;;;;;;;;5053907;28;20439;-70
2023/02/11 10:05:03;;;;;;;10.33;6.20;;;;;;;;;;5052314;28;20486;-71
2023/02/11 10:07:37;;;;;;;7.60;5.03;;;;;;;;;;5049243;28;20449;-70
2023/02/11 10:10:13;;;;;;;7.97;5.27;;;;;;;;;;5052918;28;20830;-72
2023/02/11 10:12:53;;;;;;;7.63;5.57;;;;;;;;;;5052916;28;20445;-67
2023/02/11 10:15:24;;;;;;;5.23;4.53;;;;;;;;;;5052438;28;20438;-69
2023/02/11 10:18:02;;;;;;;9.50;5.90;;;;;;;;;;5052336;28;20443;-70
2023/02/11 10:20:32;;;;;;;7.77;5.50;;;;;;;;;;5052385;28;20457;-69
2023/02/11 10:23:00;;;;;;;8.97;5.67;;;;;;;;;;5052641;28;20454;-73
2023/02/11 10:25:34;;;;;;;7.80;6.23;;;;;;;;;;5052305;28;20490;-76
2023/02/11 10:28:02;;;;;;;9.17;6.37;;;;;;;;;;5052292;28;20461;-74
2023/02/11 10:30:31;;;;;;;7.57;5.60;;;;;;;;;;5052131;28;20454;-76
2023/02/11 10:33:01;;;;;;;11.43;5.40;;;;;;;;;;5051695;28;20777;-72
2023/02/11 10:35:28;;;;;;;7.10;5.50;;;;;;;;;;5052777;28;20458;-70
2023/02/11 10:37:55;;;;;;;6.67;5.00;;;;;;;;;;5051927;28;20943;-69
2023/02/11 10:40:24;;;;;;;15.83;6.73;;;;;;;;;;5052157;28;20481;-71
2023/02/11 10:42:54;;;;;;;6.53;4.80;;;;;;;;;;5046834;28;20454;-76
2023/02/11 10:45:24;;;;;;;10.00;6.70;;;;;;;;;;5050800;28;20482;-75
2023/02/11 10:47:51;;;;;;;7.77;5.60;;;;;;;;;;5050334;28;20446;-74
2023/02/11 10:50:20;;;;;;;7.80;5.50;;;;;;;;;;5049866;28;20457;-74
2023/02/11 10:52:47;;;;;;;9.97;8.03;;;;;;;;;;5050331;28;20825;-75
2023/02/11 10:55:17;;;;;;;13.73;8.10;;;;;;;;;;5050453;28;20465;-75
2023/02/11 10:57:50;;;;;;;11.73;8.80;;;;;;;;;;5050191;28;20463;-76
2023/02/11 11:00:24;;;;;;;17.93;9.10;;;;;;;;;;5048198;28;20454;-74
2023/02/11 11:02:56;;;;;;;9.37;8.37;;;;;;;;;;5049814;28;20443;-75
2023/02/11 11:05:27;;;;;;;13.43;9.33;;;;;;;;;;5049436;28;20485;-75
2023/02/11 11:07:55;;;;;;;13.60;7.83;;;;;;;;;;5049105;28;21135;-73
2023/02/11 11:10:27;;;;;;;14.00;7.80;;;;;;;;;;5050257;28;20456;-75
2023/02/11 11:12:54;;;;;;;13.93;10.00;;;;;;;;;;5050007;28;20450;-74
2023/02/11 11:15:24;;;;;;;14.17;8.23;;;;;;;;;;5049515;28;20990;-75
2023/02/11 11:17:51;;;;;;;16.57;8.60;;;;;;;;;;5047299;28;20478;-75
2023/02/11 11:20:27;;;;;;;13.23;8.23;;;;;;;;;;5049530;28;20458;-74
2023/02/11 11:23:07;;;;;;;10.97;7.30;;;;;;;;;;5035814;28;20664;-74
2023/02/11 11:25:37;;;;;;;10.23;7.10;;;;;;;;;;5049760;28;20480;-73
2023/02/11 11:28:05;;;;;;;12.23;6.20;;;;;;;;;;5048545;28;20454;-72
2023/02/11 11:30:34;;;;;;;11.40;5.77;;;;;;;;;;5049115;28;20446;-72
2023/02/11 11:33:02;;;;;;;16.53;7.57;;;;;;;;;;5048909;28;20477;-75
2023/02/11 11:35:31;;;;;;;10.53;7.10;;;;;;;;;;5048942;28;20459;-75
2023/02/11 11:38:01;;;;;;;8.13;6.90;;;;;;;;;;5049387;28;20458;-74
2023/02/11 11:40:29;;;;;;;7.83;5.27;;;;;;;;;;5048853;28;20451;-75
2023/02/11 11:43:06;;;;;;;13.63;6.40;;;;;;;;;;5048711;28;20446;-75
2023/02/11 11:45:35;;;;;;;7.73;5.70;;;;;;;;;;5049426;28;21024;-75
2023/02/11 11:48:04;;;;;;;10.30;5.70;;;;;;;;;;5049069;28;20454;-75
2023/02/11 11:50:34;;;;;;;13.17;6.07;;;;;;;;;;5048187;28;20452;-75
2023/02/11 11:53:05;;;;;;;9.77;5.87;;;;;;;;;;5048432;28;20458;-76
2023/02/11 11:55:35;;;;;;;7.50;5.53;;;;;;;;;;5048481;28;20451;-75
2023/02/11 11:58:02;;;;;;;8.70;6.20;;;;;;;;;;5048895;28;20446;-75
2023/02/11 12:00:32;;;;;;;8.57;6.27;;;;;;;;;;5047177;28;20450;-75
2023/02/11 12:03:23;;;;;;;7.00;5.80;;;;;;;;;;5048947;28;20450;-75
2023/02/11 12:05:53;;;;;;;7.97;5.33;;;;;;;;;;5048131;28;20474;-76
2023/02/11 12:08:24;;;;;;;6.60;5.60;;;;;;;;;;5048556;28;20496;-74
2023/02/11 12:11:00;;;;;;;9.73;4.90;;;;;;;;;;5047601;28;20450;-75
2023/02/11 12:13:32;;;;;;;7.17;5.47;;;;;;;;;;5048216;28;20525;-77
2023/02/11 12:16:04;;;;;;;9.73;5.40;;;;;;;;;;5048005;28;20458;-77
2023/02/11 12:18:41;;;;;;;10.13;5.07;;;;;;;;;;5048566;28;21315;-74
2023/02/11 12:21:23;;;;;;;7.40;4.73;;;;;;;;;;5048253;28;20999;-72
2023/02/11 12:24:05;;;;;;;8.03;4.83;;;;;;;;;;5045671;28;20461;-73
2023/02/11 12:26:35;;;;;;;7.93;4.90;;;;;;;;;;5048290;28;20442;-74
2023/02/11 12:29:06;;;;;;;5.63;4.50;;;;;;;;;;5047118;28;20450;-77
2023/02/11 12:31:42;;;;;;;7.40;4.40;;;;;;;;;;5047735;28;20545;-76
2023/02/11 12:34:25;;;;;;;6.20;4.87;;;;;;;;;;5048671;28;20450;-73
2023/02/11 12:36:57;;;;;;;6.50;4.80;;;;;;;;;;5046338;28;20450;-75
2023/02/11 12:39:29;;;;;;;9.50;5.27;;;;;;;;;;5047947;28;20461;-76
2023/02/11 12:44:58;;;;;;;8.47;4.40;;;;;;;;;;5048094;28;20989;-74
2023/02/11 12:47:28;;;;;;;10.60;5.50;;;;;;;;;;5048613;28;20525;-75
2023/02/11 12:50:04;;;;;;;8.70;4.47;;;;;;;;;;5047608;28;20454;-75
2023/02/11 12:52:38;;;;;;;5.80;3.60;;;;;;;;;;5048053;28;20495;-75
2023/02/11 12:55:10;;;;;;;9.63;4.77;;;;;;;;;;5047512;28;20958;-75
2023/02/11 12:57:39;;;;;;;6.80;3.97;;;;;;;;;;5048409;28;20434;-75
2023/02/11 13:00:08;;;;;;;7.10;3.50;;;;;;;;;;5046694;28;20477;-76
2023/02/11 13:02:40;;;;;;;5.27;3.53;;;;;;;;;;5048269;28;20947;-75
2023/02/11 13:05:15;;;;;;;5.97;4.00;;;;;;;;;;5039556;28;20476;-75
2023/02/11 13:07:44;;;;;;;7.87;4.13;;;;;;;;;;5053743;28;20489;-70
2023/02/11 13:10:23;;;;;;;4.80;4.37;;;;;;;;;;5056322;28;20478;-75
2023/02/11 13:15:36;;;;;;;3.97;2.90;;;;;;;;;;5054978;28;20440;-76
2023/02/11 13:18:06;;;;;;;4.83;3.20;;;;;;;;;;5054055;28;20638;-77
2023/02/11 13:20:39;;;;;;;3.80;2.80;;;;;;;;;;5053983;28;20791;-75
2023/02/11 13:23:12;;;;;;;4.47;3.00;;;;;;;;;;5054084;28;20835;-76
2023/02/11 13:25:42;;;;;;;8.47;4.33;;;;;;;;;;5055784;28;20945;-70
2023/02/11 13:28:18;;;;;;;5.80;3.53;;;;;;;;;;5054600;28;20453;-72
2023/02/11 13:30:50;;;;;;;3.13;2.83;;;;;;;;;;5053058;28;20449;-72
2023/02/11 13:33:19;;;;;;;5.73;3.57;;;;;;;;;;5054702;28;20449;-72
2023/02/11 13:35:49;;;;;;;5.73;3.90;;;;;;;;;;5054055;28;20458;-72
2023/02/11 13:38:21;;;;;;;7.00;4.27;;;;;;;;;;5054680;28;20556;-72
2023/02/11 13:40:58;;;;;;;5.77;4.47;;;;;;;;;;5053996;28;20486;-72
2023/02/11 13:43:27;;;;;;;8.40;4.60;;;;;;;;;;5054603;28;20441;-72
2023/02/11 13:45:58;;;;;;;7.27;4.80;;;;;;;;;;5054452;28;20584;-72
2023/02/11 13:48:29;;;;;;;4.67;3.87;;;;;;;;;;5054628;28;20458;-71
2023/02/11 13:50:59;;;;;;;9.43;5.40;;;;;;;;;;5054214;28;20473;-72
2023/02/11 13:53:27;;;;;;;8.00;5.00;;;;;;;;;;5055537;28;20460;-72
2023/02/11 13:56:06;;;;;;;8.63;5.27;;;;;;;;;;5063114;28;20797;-71
2023/02/11 13:58:39;;;;;;;7.73;4.97;;;;;;;;;;5057793;28;20457;-71
2023/02/11 14:01:06;;;;;;;11.00;5.43;;;;;;;;;;5053317;28;20453;-72
2023/02/11 14:09:31;;;;;;;11.87;6.00;;;;;;;;;;5053438;28;20549;-71
2023/02/11 14:12:13;;;;;;;10.63;7.10;;;;;;;;;;5054838;28;20453;-71
2023/02/11 14:14:55;;;;;;;9.90;6.33;;;;;;;;;;5054074;28;20824;-68
2023/02/11 14:17:29;;;;;;;8.73;5.40;;;;;;;;;;5048313;28;20446;-71
2023/02/11 14:19:56;;;;;;;11.87;6.20;;;;;;;;;;5039038;28;20440;-71
2023/02/11 14:22:26;;;;;;;15.50;7.40;;;;;;;;;;5050682;28;20449;-71
2023/02/11 14:24:55;;;;;;;8.93;5.87;;;;;;;;;;5051681;28;20474;-72
2023/02/11 14:27:26;;;;;;;8.67;5.87;;;;;;;;;;5055044;28;20454;-72
2023/02/11 14:30:01;;;;;;;12.83;6.77;;;;;;;;;;5052299;28;20445;-70
2023/02/11 14:32:36;;;;;;;7.73;5.60;;;;;;;;;;5050217;28;20454;-73
2023/02/11 14:35:08;;;;;;;9.50;6.37;;;;;;;;;;5053007;28;20549;-72
2023/02/11 14:37:46;;;;;;;9.27;5.70;;;;;;;;;;5050896;28;20794;-71
2023/02/11 14:40:18;;;;;;;10.57;5.80;;;;;;;;;;5047081;28;20999;-70
2023/02/11 14:42:45;;;;;;;10.10;5.70;;;;;;;;;;5048302;28;20462;-70
2023/02/11 14:45:17;;;;;;;10.80;6.67;;;;;;;;;;5053121;28;20835;-70
2023/02/11 14:47:49;;;;;;;9.37;5.33;;;;;;;;;;5052678;28;20768;-72
2023/02/11 14:50:26;;;;;;;10.80;5.73;;;;;;;;;;5052905;28;20857;-75
2023/02/11 14:52:55;;;;;;;10.43;6.53;;;;;;;;;;5052410;28;20453;-74
2023/02/11 14:55:28;;;;;;;8.00;5.83;;;;;;;;;;5054750;28;20446;-74
2023/02/11 14:58:08;;;;;;;8.87;5.63;;;;;;;;;;5052503;28;20438;-71
2023/02/11 15:00:35;;;;;;;12.47;6.27;;;;;;;;;;5052641;28;20958;-71
2023/02/11 15:03:02;;;;;;;10.70;5.97;;;;;;;;;;5052581;28;20446;-71
2023/02/11 15:05:29;;;;;;;10.17;4.90;;;;;;;;;;5052700;28;20478;-77